Time;durP1;ratioP1;P1;durP2;ratioP2;P2;SDS_P1;SDS_P2;PMS_P1;PMS_P2;Temp;Humidity;BMP_temperature;BMP_pressure;BME280_temperature;BME280_humidity;BME280_pressure;Samples;Min_cycle;Max_cycle;Signal;HPM_P1;HPM_P2
2022/05/14 00:00:54;;;;;;;1.47;1.07;;;14.30;93.70;;;;;;5049986;28;20862;-77
2022/05/14 00:03:23;;;;;;;1.47;1.00;;;14.20;93.30;;;;;;5050670;28;20462;-77
2022/05/14 00:05:49;;;;;;;1.50;1.10;;;14.20;93.40;;;;;;5051207;28;20461;-78
2022/05/14 00:08:17;;;;;;;1.47;1.00;;;14.20;93.80;;;;;;5051422;28;20556;-77
2022/05/14 00:13:28;;;;;;;1.50;1.00;;;14.10;94.20;;;;;;5050411;28;20449;-76
2022/05/14 00:15:56;;;;;;;1.47;1.00;;;14.10;94.40;;;;;;5051045;28;20462;-78
2022/05/14 00:18:24;;;;;;;1.47;1.23;;;14.00;94.10;;;;;;5050208;28;20466;-77
2022/05/14 00:20:51;;;;;;;1.50;1.00;;;14.00;94.00;;;;;;5043799;28;20483;-77
2022/05/14 00:23:18;;;;;;;1.50;1.00;;;14.00;94.50;;;;;;5050464;28;20806;-77
2022/05/14 00:25:47;;;;;;;1.50;1.00;;;13.90;93.40;;;;;;5041395;28;20462;-78
2022/05/14 00:28:15;;;;;;;1.50;1.00;;;13.90;94.80;;;;;;5039501;28;20482;-78
2022/05/14 00:30:42;;;;;;;1.50;1.00;;;13.80;95.00;;;;;;5048360;28;21032;-78
2022/05/14 00:33:11;;;;;;;1.50;1.10;;;13.70;95.10;;;;;;5042903;28;20494;-78
2022/05/14 00:35:41;;;;;;;1.47;1.00;;;13.70;95.80;;;;;;5044015;28;20847;-77
2022/05/14 00:38:10;;;;;;;1.47;1.00;;;13.60;96.00;;;;;;5049869;28;20466;-78
2022/05/14 00:40:44;;;;;;;1.50;1.00;;;13.60;95.30;;;;;;5048569;28;20477;-78
2022/05/14 00:43:13;;;;;;;1.47;1.00;;;13.60;94.90;;;;;;5045372;28;20491;-77
2022/05/14 00:45:48;;;;;;;1.50;1.10;;;13.50;95.20;;;;;;5050255;28;20466;-77
2022/05/14 00:48:16;;;;;;;1.50;1.00;;;13.50;95.70;;;;;;5046054;28;20553;-78
2022/05/14 00:50:50;;;;;;;1.47;1.00;;;13.50;95.20;;;;;;5047905;28;20574;-78
2022/05/14 00:53:20;;;;;;;1.50;1.00;;;13.50;95.50;;;;;;5048962;28;20498;-78
2022/05/14 00:55:54;;;;;;;1.50;1.10;;;13.50;95.50;;;;;;5038289;28;20474;-78
2022/05/14 00:58:28;;;;;;;1.47;1.00;;;13.50;95.60;;;;;;5045731;28;20489;-78
2022/05/14 01:00:55;;;;;;;1.50;1.10;;;13.50;94.90;;;;;;5041122;28;20577;-78
2022/05/14 01:03:23;;;;;;;1.47;1.00;;;13.40;95.40;;;;;;5041432;28;20647;-78
2022/05/14 01:05:54;;;;;;;1.47;1.00;;;13.40;95.20;;;;;;5043842;28;20555;-78
2022/05/14 01:08:23;;;;;;;1.50;1.00;;;13.30;95.50;;;;;;5050559;28;20844;-77
2022/05/14 01:10:52;;;;;;;1.50;1.10;;;13.30;95.40;;;;;;5048125;28;20562;-79
2022/05/14 01:13:19;;;;;;;1.40;1.00;;;13.30;95.90;;;;;;5044887;28;20462;-79
2022/05/14 01:15:49;;;;;;;1.47;1.00;;;13.30;96.60;;;;;;5050315;28;20462;-78
2022/05/14 01:18:17;;;;;;;1.50;1.10;;;13.20;96.30;;;;;;5048437;28;20466;-76
2022/05/14 01:20:47;;;;;;;1.40;1.10;;;13.20;96.20;;;;;;5041082;28;20466;-78
2022/05/14 01:23:28;;;;;;;1.50;1.00;;;13.20;95.90;;;;;;5046196;28;20493;-78
2022/05/14 01:28:50;;;;;;;1.50;1.10;;;13.20;95.20;;;;;;5033314;28;20446;-78
2022/05/14 01:31:17;;;;;;;1.43;1.10;;;13.10;95.70;;;;;;5042496;28;20454;-77
2022/05/14 01:33:45;;;;;;;1.50;1.10;;;13.10;95.50;;;;;;5032384;28;20963;-78
2022/05/14 01:36:12;;;;;;;1.50;1.10;;;13.10;94.60;;;;;;5040991;28;21174;-77
2022/05/14 01:38:40;;;;;;;1.47;1.10;;;13.10;95.30;;;;;;5037480;28;20459;-78
2022/05/14 01:41:10;;;;;;;1.47;1.00;;;13.10;95.20;;;;;;5048768;28;20536;-77
2022/05/14 01:43:39;;;;;;;1.50;1.10;;;13.10;95.20;;;;;;5049508;28;20490;-78
2022/05/14 01:46:07;;;;;;;1.50;1.10;;;13.00;95.30;;;;;;5031317;28;20822;-77
2022/05/14 01:48:34;;;;;;;1.43;1.00;;;13.00;94.90;;;;;;5050101;28;20477;-78
2022/05/14 01:51:01;;;;;;;1.47;1.10;;;13.00;95.80;;;;;;5046532;28;20478;-77
2022/05/14 01:53:28;;;;;;;1.50;1.10;;;13.00;95.10;;;;;;5042554;28;21013;-77
2022/05/14 01:55:55;;;;;;;1.47;1.10;;;13.00;95.70;;;;;;5032343;28;20470;-77
2022/05/14 01:58:38;;;;;;;1.50;1.00;;;13.00;95.40;;;;;;5047152;28;20527;-77
2022/05/14 02:01:10;;;;;;;1.50;1.10;;;13.00;95.20;;;;;;5045393;28;21238;-78
2022/05/14 02:03:37;;;;;;;1.47;1.10;;;12.90;95.10;;;;;;5052317;28;20767;-78
2022/05/14 02:06:05;;;;;;;1.50;1.03;;;12.90;95.20;;;;;;5053265;28;20464;-77
2022/05/14 02:08:31;;;;;;;1.50;1.10;;;12.90;95.20;;;;;;5053806;28;20465;-79
2022/05/14 02:10:59;;;;;;;1.50;1.10;;;12.90;95.80;;;;;;5047891;28;20498;-78
2022/05/14 02:13:27;;;;;;;1.50;1.10;;;12.90;95.50;;;;;;5052543;28;20850;-78
2022/05/14 02:15:54;;;;;;;1.47;1.10;;;12.90;94.80;;;;;;5047700;28;20470;-78
2022/05/14 02:18:21;;;;;;;1.50;1.10;;;12.90;95.50;;;;;;5052954;28;20474;-78
2022/05/14 02:20:49;;;;;;;1.50;1.10;;;12.90;94.80;;;;;;5054479;28;20482;-78
2022/05/14 02:23:16;;;;;;;1.50;1.10;;;12.90;95.10;;;;;;5052474;28;20482;-78
2022/05/14 02:25:44;;;;;;;1.50;1.10;;;12.80;95.00;;;;;;5045109;28;20463;-78
2022/05/14 02:28:11;;;;;;;1.50;1.10;;;12.80;95.10;;;;;;5046059;28;20458;-77
2022/05/14 02:30:39;;;;;;;1.50;1.10;;;12.80;95.20;;;;;;5049823;28;20484;-78
2022/05/14 02:33:06;;;;;;;1.50;1.10;;;12.80;95.20;;;;;;5051387;28;20462;-77
2022/05/14 02:35:33;;;;;;;1.47;1.10;;;12.80;95.40;;;;;;5051251;28;20462;-77
2022/05/14 02:38:00;;;;;;;1.50;1.10;;;12.80;95.10;;;;;;5050721;28;20892;-78
2022/05/14 02:40:27;;;;;;;3.40;3.20;;;12.80;95.20;;;;;;5047027;28;20977;-78
2022/05/14 02:42:55;;;;;;;1.50;1.10;;;12.70;95.20;;;;;;5052900;28;20463;-77
2022/05/14 02:45:21;;;;;;;1.43;1.03;;;12.70;95.00;;;;;;5052012;28;20870;-78
2022/05/14 02:47:50;;;;;;;1.50;1.10;;;12.70;95.00;;;;;;5052807;28;20477;-78
2022/05/14 02:50:18;;;;;;;1.47;1.10;;;12.70;95.00;;;;;;5046454;28;20505;-78
2022/05/14 02:52:46;;;;;;;1.50;1.10;;;12.70;95.10;;;;;;5048157;28;20464;-78
2022/05/14 02:55:13;;;;;;;1.50;1.10;;;12.70;94.60;;;;;;5039998;28;21002;-77
2022/05/14 02:57:40;;;;;;;1.47;1.10;;;12.60;94.60;;;;;;5048041;28;20461;-78
2022/05/14 03:00:11;;;;;;;1.40;1.07;;;12.60;95.20;;;;;;5052446;28;20490;-78
2022/05/14 03:02:40;;;;;;;1.47;1.10;;;12.60;94.80;;;;;;5047372;28;20948;-78
2022/05/14 03:05:12;;;;;;;1.50;1.17;;;12.60;94.90;;;;;;5053501;28;20458;-78
2022/05/14 03:07:41;;;;;;;1.47;1.10;;;12.60;94.70;;;;;;5052680;28;20490;-78
2022/05/14 03:10:10;;;;;;;1.47;1.03;;;12.50;95.40;;;;;;5048051;28;20856;-78
2022/05/14 03:12:39;;;;;;;1.50;1.00;;;12.50;95.40;;;;;;5050433;28;20588;-77
2022/05/14 03:15:08;;;;;;;1.47;1.10;;;12.50;95.50;;;;;;5051957;28;20477;-77
2022/05/14 03:17:36;;;;;;;2.50;2.30;;;12.50;95.40;;;;;;5044353;28;20467;-78
2022/05/14 03:20:06;;;;;;;1.50;1.00;;;12.50;94.90;;;;;;5046283;28;20474;-78
2022/05/14 03:22:35;;;;;;;1.50;1.10;;;12.50;94.30;;;;;;5048560;28;20466;-77
2022/05/14 03:25:02;;;;;;;1.50;1.20;;;12.50;94.60;;;;;;5043700;28;20821;-78
2022/05/14 03:27:29;;;;;;;1.50;1.10;;;12.40;94.90;;;;;;5043976;28;20458;-79
2022/05/14 03:29:57;;;;;;;1.43;1.10;;;12.40;95.50;;;;;;5051241;28;20504;-78
2022/05/14 03:32:26;;;;;;;1.50;1.20;;;12.40;95.70;;;;;;5049888;28;20508;-78
2022/05/14 03:34:54;;;;;;;1.50;1.10;;;12.40;95.20;;;;;;5048983;28;20819;-77
2022/05/14 03:37:21;;;;;;;1.47;1.10;;;12.40;95.90;;;;;;5046594;28;20911;-77
2022/05/14 03:39:51;;;;;;;1.47;1.10;;;12.40;95.60;;;;;;5044147;28;20479;-78
2022/05/14 03:42:19;;;;;;;1.50;1.10;;;12.30;95.60;;;;;;5035565;28;20510;-78
2022/05/14 03:44:48;;;;;;;1.50;1.20;;;12.30;95.50;;;;;;5053512;28;20516;-78
2022/05/14 03:47:16;;;;;;;1.43;1.00;;;12.30;96.00;;;;;;5045721;28;20481;-78
2022/05/14 03:49:43;;;;;;;1.47;1.00;;;12.30;95.80;;;;;;5052369;28;20963;-78
2022/05/14 03:52:12;;;;;;;1.50;1.10;;;12.20;95.70;;;;;;5051749;28;20462;-78
2022/05/14 03:54:42;;;;;;;1.50;1.10;;;12.20;96.30;;;;;;5048238;28;20996;-79
2022/05/14 03:57:11;;;;;;;1.50;1.10;;;12.20;95.80;;;;;;5038987;28;20459;-78
2022/05/14 03:59:39;;;;;;;1.50;1.10;;;12.20;95.80;;;;;;5042763;28;20490;-77
2022/05/14 04:02:07;;;;;;;1.47;1.10;;;12.20;95.80;;;;;;5035034;28;20463;-77
2022/05/14 04:04:38;;;;;;;1.50;1.10;;;12.20;96.40;;;;;;5044685;28;20473;-77
2022/05/14 04:07:07;;;;;;;1.43;1.10;;;12.20;96.00;;;;;;5045273;28;20560;-78
2022/05/14 04:09:35;;;;;;;1.50;1.10;;;12.20;95.90;;;;;;5048003;28;20482;-79
2022/05/14 04:12:02;;;;;;;1.47;1.10;;;12.20;96.30;;;;;;5051323;28;20474;-78
2022/05/14 04:14:30;;;;;;;1.50;1.10;;;12.20;96.30;;;;;;5051856;28;20466;-78
2022/05/14 04:16:59;;;;;;;1.43;1.10;;;12.30;96.40;;;;;;5046719;28;20541;-80
2022/05/14 04:19:26;;;;;;;1.50;1.10;;;12.30;96.50;;;;;;5035348;28;20510;-76
2022/05/14 04:24:55;;;;;;;1.47;1.10;;;12.30;96.20;;;;;;5038405;28;20462;-77
2022/05/14 04:27:23;;;;;;;1.47;1.10;;;12.30;96.10;;;;;;5040234;28;21004;-78
2022/05/14 04:29:52;;;;;;;1.47;1.10;;;12.30;96.00;;;;;;5050374;28;20514;-78
2022/05/14 04:32:19;;;;;;;1.43;1.10;;;12.30;96.00;;;;;;5049771;28;20880;-79
2022/05/14 04:34:49;;;;;;;1.50;1.10;;;12.40;95.90;;;;;;5050140;28;20541;-77
2022/05/14 04:37:22;;;;;;;1.50;1.10;;;12.40;95.60;;;;;;5048321;28;20469;-77
2022/05/14 04:39:50;;;;;;;1.50;1.07;;;12.40;95.40;;;;;;5043215;28;20796;-78
2022/05/14 04:42:17;;;;;;;1.50;1.00;;;12.40;95.30;;;;;;5043307;28;20465;-79
2022/05/14 04:44:44;;;;;;;1.50;1.10;;;12.50;95.20;;;;;;5051150;28;20492;-78
2022/05/14 04:47:14;;;;;;;1.47;1.10;;;12.50;95.20;;;;;;5052051;28;20567;-77
2022/05/14 04:49:43;;;;;;;1.50;1.10;;;12.50;94.50;;;;;;5050304;28;20521;-79
2022/05/14 04:52:10;;;;;;;1.47;1.10;;;12.50;94.90;;;;;;5036138;28;21002;-79
2022/05/14 04:54:39;;;;;;;1.47;1.00;;;12.50;94.70;;;;;;5046491;28;20973;-77
2022/05/14 04:57:08;;;;;;;1.50;1.10;;;12.60;94.70;;;;;;5026092;28;20474;-79
2022/05/14 04:59:37;;;;;;;1.50;1.00;;;12.60;94.10;;;;;;5039997;28;20578;-80
2022/05/14 05:04:52;;;;;;;1.50;1.10;;;12.80;94.30;;;;;;5046301;28;20445;-78
2022/05/14 05:07:19;;;;;;;1.47;1.00;;;12.90;94.00;;;;;;5049033;28;20462;-79
2022/05/14 05:09:46;;;;;;;1.50;1.10;;;13.00;93.80;;;;;;5047156;28;20965;-79
2022/05/14 05:12:13;;;;;;;1.50;1.10;;;13.10;93.40;;;;;;5042787;28;20495;-79
2022/05/14 05:14:41;;;;;;;1.50;1.00;;;13.20;93.00;;;;;;5052313;28;20954;-78
2022/05/14 05:17:08;;;;;;;1.50;1.00;;;13.40;92.70;;;;;;5051000;28;20454;-78
2022/05/14 05:19:35;;;;;;;1.50;1.10;;;13.40;92.50;;;;;;5051864;28;20517;-80
2022/05/14 05:22:31;;;;;;;1.43;1.10;;;13.40;92.90;;;;;;5057568;28;20676;-77
2022/05/14 05:24:58;;;;;;;1.47;1.00;;;13.60;93.00;;;;;;5045148;28;20460;-79
2022/05/14 05:27:25;;;;;;;1.50;1.10;;;13.80;92.60;;;;;;5047674;28;20461;-78
2022/05/14 05:29:51;;;;;;;1.50;1.10;;;14.00;91.30;;;;;;5052560;28;20493;-79
2022/05/14 05:32:18;;;;;;;1.50;1.00;;;14.10;90.30;;;;;;5052043;28;20522;-79
2022/05/14 05:34:48;;;;;;;1.47;1.10;;;14.20;90.20;;;;;;5054614;28;20466;-78
2022/05/14 05:37:37;;;;;;;1.43;1.00;;;14.30;89.70;;;;;;5053846;28;20461;-78
2022/05/14 05:40:05;;;;;;;1.47;1.00;;;14.50;89.90;;;;;;5051569;28;20478;-79
2022/05/14 05:42:32;;;;;;;1.47;1.00;;;14.70;89.70;;;;;;5056084;28;20462;-79
2022/05/14 05:44:59;;;;;;;1.50;1.00;;;14.90;89.10;;;;;;5055296;28;20573;-79
2022/05/14 05:47:26;;;;;;;1.67;1.57;;;15.10;88.90;;;;;;5053518;28;20464;-77
2022/05/14 05:49:53;;;;;;;1.50;1.20;;;15.40;88.20;;;;;;5054859;28;20478;-77
2022/05/14 05:52:20;;;;;;;1.43;1.00;;;15.70;87.10;;;;;;5053977;28;20492;-79
2022/05/14 05:57:33;;;;;;;1.47;1.00;;;16.20;85.00;;;;;;5046897;28;20496;-80
2022/05/14 06:00:10;;;;;;;1.50;1.00;;;16.40;84.30;;;;;;5083546;23;20493;-79
2022/05/14 06:02:37;;;;;;;1.50;1.00;;;16.60;83.90;;;;;;5052182;28;20548;-78
2022/05/14 06:05:10;;;;;;;1.47;0.90;;;16.80;83.40;;;;;;5055320;28;20487;-81
2022/05/14 06:08:26;;;;;;;1.50;1.00;;;17.00;83.20;;;;;;5052421;28;20468;-79
2022/05/14 06:10:54;;;;;;;1.43;1.00;;;17.10;82.50;;;;;;5010685;28;20487;-79
2022/05/14 06:13:22;;;;;;;1.47;0.90;;;17.30;82.70;;;;;;5010868;28;20548;-79
2022/05/14 06:15:49;;;;;;;1.50;1.00;;;17.50;82.50;;;;;;5033644;28;20521;-80
2022/05/14 06:18:19;;;;;;;1.47;0.90;;;17.80;81.40;;;;;;5034502;28;20473;-80
2022/05/14 06:20:46;;;;;;;1.43;0.90;;;18.00;80.80;;;;;;5035190;28;20487;-78
2022/05/14 06:23:22;;;;;;;1.50;0.90;;;18.20;80.10;;;;;;5030122;28;20840;-79
2022/05/14 06:25:49;;;;;;;1.50;0.90;;;18.40;79.70;;;;;;5030736;28;20454;-79
2022/05/14 06:28:17;;;;;;;1.40;0.90;;;18.60;79.60;;;;;;5033564;28;20466;-79
2022/05/14 06:30:44;;;;;;;1.43;0.90;;;18.70;78.80;;;;;;5034272;28;21009;-79
2022/05/14 06:33:12;;;;;;;1.50;0.90;;;18.80;78.50;;;;;;5031526;28;20471;-79
2022/05/14 06:35:39;;;;;;;1.50;0.90;;;18.90;79.20;;;;;;5032497;28;20463;-79
2022/05/14 06:38:07;;;;;;;1.47;0.90;;;19.10;78.10;;;;;;5031318;28;20475;-79
2022/05/14 06:40:36;;;;;;;1.40;0.90;;;19.30;77.70;;;;;;5032288;28;20494;-78
2022/05/14 06:43:04;;;;;;;1.43;0.90;;;19.40;77.30;;;;;;5030527;28;20826;-78
2022/05/14 06:45:35;;;;;;;1.50;0.90;;;19.60;77.40;;;;;;5030685;28;20467;-78
2022/05/14 06:48:03;;;;;;;1.50;0.90;;;19.70;76.80;;;;;;5025027;28;20466;-77
2022/05/14 06:50:33;;;;;;;1.47;0.90;;;19.80;76.20;;;;;;5031378;28;20494;-77
2022/05/14 06:53:04;;;;;;;1.50;0.90;;;19.90;76.10;;;;;;5003993;28;20488;-77
2022/05/14 06:55:36;;;;;;;1.47;0.90;;;19.90;75.70;;;;;;5022987;28;20489;-76
2022/05/14 06:58:03;;;;;;;1.47;0.90;;;20.00;76.10;;;;;;5025761;28;20974;-77
2022/05/14 07:00:32;;;;;;;1.50;0.90;;;20.20;76.20;;;;;;5028672;28;20487;-77
2022/05/14 07:08:24;;;;;;;1.50;0.90;;;20.70;74.10;;;;;;5027795;28;20446;-77
2022/05/14 07:10:51;;;;;;;1.43;0.90;;;20.80;74.30;;;;;;5024178;28;21170;-77
2022/05/14 07:13:17;;;;;;;1.47;0.87;;;20.80;73.80;;;;;;5021218;28;20917;-78
2022/05/14 07:15:46;;;;;;;1.50;0.90;;;20.90;74.60;;;;;;5023945;28;20467;-77
2022/05/14 07:18:12;;;;;;;1.43;0.90;;;21.10;73.90;;;;;;5027275;28;20471;-77
2022/05/14 07:20:39;;;;;;;1.50;0.90;;;21.20;74.20;;;;;;5026927;28;20495;-77
2022/05/14 07:23:06;;;;;;;1.50;0.90;;;21.30;73.00;;;;;;5029711;28;20501;-77
2022/05/14 07:25:33;;;;;;;1.47;0.90;;;21.30;73.00;;;;;;5024792;28;20472;-78
2022/05/14 07:28:00;;;;;;;1.47;0.90;;;21.40;73.30;;;;;;4988194;28;20488;-78
2022/05/14 07:30:27;;;;;;;1.47;0.90;;;21.40;72.90;;;;;;5025173;28;20479;-78
2022/05/14 07:33:04;;;;;;;1.40;0.90;;;21.40;72.70;;;;;;5020671;28;20758;-78
2022/05/14 07:35:33;;;;;;;1.47;0.90;;;21.50;73.40;;;;;;5017840;28;20475;-79
2022/05/14 07:38:06;;;;;;;1.50;1.00;;;21.80;73.40;;;;;;5012360;28;20859;-78
2022/05/14 07:40:36;;;;;;;1.47;0.90;;;22.00;72.50;;;;;;5022053;28;20490;-78
2022/05/14 07:43:07;;;;;;;1.50;0.90;;;22.20;72.20;;;;;;5026691;28;20562;-78
2022/05/14 07:45:36;;;;;;;1.43;0.90;;;22.30;72.20;;;;;;5024051;28;20495;-78
2022/05/14 07:48:09;;;;;;;1.50;1.00;;;22.50;71.50;;;;;;5027474;28;20479;-78
2022/05/14 07:50:36;;;;;;;1.47;0.90;;;22.70;70.70;;;;;;5025877;28;20487;-78
2022/05/14 07:53:04;;;;;;;1.47;0.90;;;22.80;70.70;;;;;;5026317;28;20866;-78
2022/05/14 07:55:33;;;;;;;1.40;0.90;;;22.80;70.00;;;;;;5020949;28;20471;-78
2022/05/14 07:57:59;;;;;;;1.43;0.90;;;22.80;70.80;;;;;;5023542;28;20463;-78
2022/05/14 08:00:26;;;;;;;1.50;0.90;;;22.60;71.00;;;;;;5024956;28;20490;-77
2022/05/14 08:02:53;;;;;;;1.47;0.90;;;22.60;71.00;;;;;;5024787;28;20486;-78
2022/05/14 08:05:21;;;;;;;1.43;0.90;;;22.70;70.60;;;;;;5024009;28;20767;-78
2022/05/14 08:07:49;;;;;;;1.47;0.80;;;22.80;70.60;;;;;;5026753;28;20463;-78
2022/05/14 08:10:16;;;;;;;1.40;0.90;;;22.90;70.70;;;;;;5027396;28;21048;-78
2022/05/14 08:12:46;;;;;;;1.40;0.83;;;23.10;70.60;;;;;;5021422;28;20483;-78
2022/05/14 08:15:15;;;;;;;2.80;1.43;;;23.20;70.20;;;;;;5022538;28;21038;-75
2022/05/14 08:17:43;;;;;;;1.47;0.90;;;23.30;69.80;;;;;;5023288;28;20459;-76
2022/05/14 08:20:12;;;;;;;1.50;0.90;;;23.30;69.90;;;;;;5022563;28;20573;-74
2022/05/14 08:25:27;;;;;;;1.43;0.87;;;23.50;69.40;;;;;;5019537;28;20783;-77
2022/05/14 08:27:55;;;;;;;1.47;0.80;;;23.60;69.90;;;;;;5023254;28;20517;-77
2022/05/14 08:30:25;;;;;;;1.40;0.90;;;23.70;70.30;;;;;;5023824;28;20487;-77
2022/05/14 08:32:54;;;;;;;1.43;0.90;;;23.80;69.80;;;;;;5025692;28;20790;-78
2022/05/14 08:35:22;;;;;;;1.47;0.87;;;23.90;69.40;;;;;;5023873;28;20486;-74
2022/05/14 08:37:55;;;;;;;1.47;0.80;;;24.10;68.50;;;;;;5024353;28;20966;-75
2022/05/14 08:40:26;;;;;;;1.50;0.90;;;24.20;68.10;;;;;;5021812;28;20970;-76
2022/05/14 08:42:56;;;;;;;1.47;0.80;;;24.20;69.30;;;;;;5023512;28;20499;-76
2022/05/14 08:45:26;;;;;;;1.50;0.80;;;24.30;69.00;;;;;;5021142;28;20498;-76
2022/05/14 08:47:57;;;;;;;1.47;0.87;;;24.50;69.00;;;;;;5022345;28;20549;-75
2022/05/14 08:50:27;;;;;;;1.47;0.80;;;24.50;68.50;;;;;;5024366;28;20490;-77
2022/05/14 08:53:00;;;;;;;1.50;0.83;;;24.60;68.30;;;;;;5022042;28;20483;-74
2022/05/14 08:55:32;;;;;;;1.50;0.87;;;24.70;68.60;;;;;;5019370;28;20887;-77
2022/05/14 08:58:07;;;;;;;1.50;0.90;;;24.70;68.90;;;;;;5023464;28;20475;-75
2022/05/14 09:00:40;;;;;;;1.50;0.80;;;25.00;67.90;;;;;;5021141;28;20826;-81
2022/05/14 09:03:07;;;;;;;1.43;0.80;;;25.00;67.70;;;;;;5027918;28;20478;-79
2022/05/14 09:05:37;;;;;;;1.50;0.87;;;25.00;67.20;;;;;;5027032;28;20536;-78
2022/05/14 09:08:07;;;;;;;1.47;0.80;;;25.00;67.40;;;;;;5027714;28;20502;-79
2022/05/14 09:10:38;;;;;;;1.47;0.80;;;25.10;67.90;;;;;;5025233;28;20491;-77
2022/05/14 09:13:13;;;;;;;1.50;0.93;;;24.90;68.30;;;;;;5023874;28;20541;-77
2022/05/14 09:15:46;;;;;;;1.40;0.80;;;24.90;67.80;;;;;;5022918;28;20451;-77
2022/05/14 09:18:15;;;;;;;1.40;0.80;;;24.90;68.20;;;;;;5024897;28;20467;-76
2022/05/14 09:20:46;;;;;;;1.50;0.90;;;25.00;68.00;;;;;;5020407;28;21068;-77
2022/05/14 09:23:27;;;;;;;1.50;0.80;;;25.10;69.50;;;;;;5027769;28;20469;-76
2022/05/14 09:25:54;;;;;;;1.50;0.90;;;25.10;67.70;;;;;;5011874;28;20468;-77
2022/05/14 09:28:30;;;;;;;1.47;0.80;;;25.20;68.90;;;;;;5002048;28;20528;-77
2022/05/14 09:31:00;;;;;;;1.43;0.80;;;25.30;67.90;;;;;;5021828;28;20945;-77
2022/05/14 09:33:31;;;;;;;1.50;0.80;;;25.50;67.40;;;;;;5022511;28;21101;-77
2022/05/14 09:36:00;;;;;;;1.47;0.90;;;25.70;67.00;;;;;;5021904;28;20489;-78
2022/05/14 09:38:30;;;;;;;1.43;0.80;;;25.90;66.70;;;;;;5026073;28;20549;-76
2022/05/14 09:41:10;;;;;;;1.47;0.80;;;26.10;68.20;;;;;;5023486;28;20487;-79
2022/05/14 09:43:39;;;;;;;1.47;0.87;;;26.30;67.10;;;;;;5023262;28;20470;-75
2022/05/14 09:46:10;;;;;;;1.40;0.90;;;26.50;67.40;;;;;;5022684;28;20570;-77
2022/05/14 09:48:47;;;;;;;1.43;0.80;;;26.60;65.90;;;;;;5024259;28;20559;-77
2022/05/14 09:51:27;;;;;;;1.40;0.80;;;26.80;66.10;;;;;;5023292;28;20462;-75
2022/05/14 09:53:56;;;;;;;1.47;0.80;;;26.90;65.50;;;;;;5022096;28;20470;-76
2022/05/14 09:56:39;;;;;;;1.43;0.80;;;27.00;65.20;;;;;;5018857;28;20960;-77
2022/05/14 09:59:30;;;;;;;1.47;0.80;;;27.00;65.00;;;;;;5022851;28;20593;-75
2022/05/14 10:02:02;;;;;;;1.50;0.80;;;27.10;64.20;;;;;;5018819;28;20992;-77
2022/05/14 10:04:44;;;;;;;1.43;0.80;;;27.10;64.30;;;;;;5022666;28;20455;-76
2022/05/14 10:07:16;;;;;;;1.40;0.80;;;27.00;63.90;;;;;;5000708;28;20890;-76
2022/05/14 10:09:54;;;;;;;1.40;0.80;;;26.90;65.10;;;;;;5015334;28;20488;-77
2022/05/14 10:12:28;;;;;;;1.47;0.83;;;27.00;64.80;;;;;;5022405;28;20501;-77
2022/05/14 10:15:03;;;;;;;1.40;0.80;;;27.10;65.40;;;;;;5023610;28;20466;-76
2022/05/14 10:17:51;;;;;;;1.43;0.80;;;27.30;65.40;;;;;;5021599;28;20489;-77
2022/05/14 10:20:38;;;;;;;1.43;0.80;;;27.60;63.70;;;;;;5023081;28;21000;-77
2022/05/14 10:26:46;;;;;;;1.47;0.90;;;27.80;63.10;;;;;;5020453;28;20902;-78
2022/05/14 10:29:31;;;;;;;1.47;0.80;;;27.70;63.50;;;;;;5028344;28;20477;-77
2022/05/14 10:32:01;;;;;;;1.47;0.80;;;27.60;62.90;;;;;;5026216;28;20597;-77
2022/05/14 10:34:40;;;;;;;1.43;0.80;;;27.60;63.40;;;;;;5027078;28;20470;-76
2022/05/14 10:37:25;;;;;;;1.40;0.80;;;27.60;63.30;;;;;;5001038;28;20947;-76
2022/05/14 10:40:06;;;;;;;1.47;0.80;;;27.60;63.60;;;;;;5020452;28;20650;-76
2022/05/14 10:42:44;;;;;;;1.43;0.80;;;27.50;64.00;;;;;;4995535;28;20483;-76
2022/05/14 10:45:17;;;;;;;1.47;0.80;;;27.70;63.20;;;;;;5028524;28;20469;-77
2022/05/14 10:47:47;;;;;;;1.43;0.80;;;27.80;64.20;;;;;;5026395;28;20454;-77
2022/05/14 10:50:19;;;;;;;1.47;0.80;;;28.00;63.80;;;;;;5025310;28;20578;-77
2022/05/14 10:52:48;;;;;;;1.40;0.80;;;28.30;62.70;;;;;;4991384;28;20486;-76
2022/05/14 10:55:21;;;;;;;3.20;2.83;;;28.60;63.80;;;;;;5023086;28;20471;-77
2022/05/14 10:57:56;;;;;;;1.43;0.80;;;28.60;62.60;;;;;;5023175;28;20944;-77
2022/05/14 11:00:38;;;;;;;1.43;0.80;;;28.30;63.20;;;;;;5023142;28;21081;-77
2022/05/14 11:03:23;;;;;;;1.47;0.90;;;28.20;64.40;;;;;;5025935;28;20458;-77
2022/05/14 11:05:55;;;;;;;1.40;0.83;;;28.30;63.50;;;;;;5023861;28;20465;-78
2022/05/14 11:08:32;;;;;;;1.43;0.80;;;28.50;63.30;;;;;;5029821;28;20497;-78
2022/05/14 11:11:06;;;;;;;1.43;0.80;;;28.70;61.80;;;;;;5024385;28;21060;-77
2022/05/14 11:13:35;;;;;;;1.40;0.80;;;28.60;61.70;;;;;;5014463;28;20495;-77
2022/05/14 11:16:05;;;;;;;1.50;0.90;;;28.50;62.10;;;;;;5019062;28;20478;-77
2022/05/14 11:18:43;;;;;;;1.40;0.80;;;27.80;62.80;;;;;;5021386;28;20476;-78
2022/05/14 11:21:18;;;;;;;1.40;0.90;;;27.20;64.50;;;;;;5020397;28;20495;-78
2022/05/14 11:23:49;;;;;;;1.60;1.40;;;27.20;63.80;;;;;;5024772;28;20570;-77
2022/05/14 11:29:14;;;;;;;1.47;0.80;;;27.30;61.80;;;;;;5019124;28;20469;-77
2022/05/14 11:31:52;;;;;;;1.40;0.80;;;27.40;63.50;;;;;;5018971;28;21026;-77
2022/05/14 11:34:23;;;;;;;1.43;0.80;;;27.70;63.30;;;;;;5024049;28;20508;-76
2022/05/14 11:36:53;;;;;;;1.50;1.00;;;27.80;62.30;;;;;;5002321;28;20491;-77
2022/05/14 11:39:28;;;;;;;1.43;0.80;;;27.90;62.40;;;;;;5012376;28;20577;-75
2022/05/14 11:42:08;;;;;;;1.40;0.90;;;28.10;63.20;;;;;;5022490;28;20459;-75
2022/05/14 11:44:47;;;;;;;1.40;0.80;;;28.20;62.00;;;;;;5027214;28;20466;-78
2022/05/14 11:47:45;;;;;;;1.47;0.80;;;28.20;61.80;;;;;;5028973;28;20486;-77
2022/05/14 11:50:15;;;;;;;1.43;0.80;;;28.10;61.60;;;;;;5028081;28;21031;-76
2022/05/14 11:52:52;;;;;;;1.43;0.80;;;27.90;61.80;;;;;;5022696;28;20809;-75
2022/05/14 11:55:22;;;;;;;1.40;0.80;;;27.80;63.20;;;;;;5022233;28;21049;-75
2022/05/14 11:57:53;;;;;;;1.40;0.80;;;27.70;64.00;;;;;;5019206;28;20462;-76
2022/05/14 12:00:26;;;;;;;1.40;0.80;;;27.90;62.20;;;;;;5018233;28;20500;-75
2022/05/14 12:02:57;;;;;;;1.47;0.90;;;28.10;63.10;;;;;;5020594;28;20569;-76
2022/05/14 12:05:30;;;;;;;1.40;0.80;;;28.40;61.10;;;;;;5024527;28;20760;-76
2022/05/14 12:08:15;;;;;;;1.50;0.80;;;28.70;61.00;;;;;;5025500;28;20462;-77
2022/05/14 12:10:52;;;;;;;1.40;0.80;;;28.70;59.70;;;;;;5021172;28;20561;-77
2022/05/14 12:13:24;;;;;;;1.40;0.80;;;28.90;61.30;;;;;;4996973;28;20513;-77
2022/05/14 12:15:56;;;;;;;1.47;0.80;;;29.10;59.50;;;;;;5026073;28;21056;-78
2022/05/14 12:18:24;;;;;;;1.50;0.90;;;29.10;59.40;;;;;;5029329;28;20542;-78
2022/05/14 12:20:55;;;;;;;1.47;0.83;;;29.20;60.80;;;;;;5023327;28;20482;-78
2022/05/14 12:23:34;;;;;;;1.43;0.80;;;29.20;61.90;;;;;;5028905;28;20522;-77
2022/05/14 12:26:02;;;;;;;1.43;0.80;;;29.40;59.90;;;;;;5020882;28;20970;-78
2022/05/14 12:28:31;;;;;;;1.40;0.80;;;29.60;60.20;;;;;;5022149;28;20466;-78
2022/05/14 12:34:00;;;;;;;1.40;0.80;;;29.60;60.20;;;;;;5027151;28;20481;-78
2022/05/14 12:36:29;;;;;;;1.43;0.80;;;29.50;58.70;;;;;;5026993;28;20557;-78
2022/05/14 12:38:57;;;;;;;1.40;0.80;;;29.60;58.70;;;;;;5029060;28;20473;-79
2022/05/14 12:41:31;;;;;;;1.40;0.80;;;29.70;60.40;;;;;;5023216;28;20464;-78
2022/05/14 12:44:04;;;;;;;1.43;0.87;;;29.60;59.90;;;;;;5027631;28;20554;-78
2022/05/14 12:46:38;;;;;;;1.47;0.80;;;29.50;60.50;;;;;;5022494;28;20983;-78
2022/05/14 12:49:07;;;;;;;3.83;3.03;;;29.50;59.70;;;;;;5027705;28;20655;-78
2022/05/14 12:51:34;;;;;;;1.43;0.80;;;29.40;59.20;;;;;;5022141;28;20498;-78
2022/05/14 12:54:00;;;;;;;1.47;0.90;;;29.40;59.10;;;;;;5020801;28;20495;-78
2022/05/14 12:56:40;;;;;;;1.43;0.80;;;29.50;59.60;;;;;;5025506;28;20489;-78
2022/05/14 12:59:07;;;;;;;1.43;0.80;;;29.50;60.50;;;;;;5018419;28;20474;-78
2022/05/14 13:01:35;;;;;;;1.40;0.80;;;29.70;58.70;;;;;;5021825;28;21072;-78
2022/05/14 13:04:08;;;;;;;1.40;0.80;;;30.00;59.90;;;;;;5028183;28;20963;-78
2022/05/14 13:06:36;;;;;;;1.47;0.80;;;30.10;56.90;;;;;;5025817;28;20458;-78
2022/05/14 13:09:08;;;;;;;1.47;0.80;;;30.20;58.80;;;;;;5026401;28;20455;-78
2022/05/14 13:11:38;;;;;;;1.40;0.80;;;30.20;57.50;;;;;;5023772;28;20494;-78
2022/05/14 13:14:14;;;;;;;1.40;0.80;;;30.10;58.60;;;;;;5024845;28;20560;-78
2022/05/14 13:16:52;;;;;;;1.40;0.80;;;29.90;58.30;;;;;;5026924;28;20631;-79
2022/05/14 13:19:22;;;;;;;1.40;0.80;;;29.70;58.70;;;;;;5027837;28;20478;-78
2022/05/14 13:21:52;;;;;;;1.43;0.80;;;29.70;59.30;;;;;;5027840;28;20866;-78
2022/05/14 13:24:24;;;;;;;1.43;0.80;;;29.60;59.70;;;;;;5022160;28;20470;-78
2022/05/14 13:26:59;;;;;;;1.47;0.80;;;29.70;59.40;;;;;;5021777;28;20469;-78
2022/05/14 13:29:27;;;;;;;1.47;0.83;;;29.60;60.50;;;;;;5019240;28;20523;-78
2022/05/14 13:32:09;;;;;;;1.43;0.80;;;29.50;59.30;;;;;;5026745;28;20470;-78
2022/05/14 13:37:27;;;;;;;1.43;0.80;;;29.10;60.50;;;;;;5021761;28;20453;-77
2022/05/14 13:39:55;;;;;;;1.43;0.80;;;28.90;59.70;;;;;;5026407;28;20493;-77